sensor_id;sensor_type;location;lat;lon;timestamp;P1;durP1;ratioP1;P2;durP2;ratioP2
34142;SDS011;20419;10.658;106.724;2023-12-04T00:02:23;7.38;;;4.68;;
34142;SDS011;20419;10.658;106.724;2023-12-04T00:04:50;7.72;;;4.30;;
34142;SDS011;20419;10.658;106.724;2023-12-04T00:07:17;10.07;;;5.35;;
34142;SDS011;20419;10.658;106.724;2023-12-04T00:09:44;8.20;;;5.07;;
34142;SDS011;20419;10.658;106.724;2023-12-04T00:12:11;8.65;;;5.13;;
34142;SDS011;20419;10.658;106.724;2023-12-04T00:14:38;7.88;;;4.68;;
34142;SDS011;20419;10.658;106.724;2023-12-04T00:17:04;8.10;;;4.35;;
34142;SDS011;20419;10.658;106.724;2023-12-04T00:19:31;9.18;;;4.80;;
34142;SDS011;20419;10.658;106.724;2023-12-04T00:21:58;7.13;;;4.60;;
34142;SDS011;20419;10.658;106.724;2023-12-04T00:24:25;7.95;;;5.20;;
34142;SDS011;20419;10.658;106.724;2023-12-04T00:26:51;6.75;;;4.82;;
34142;SDS011;20419;10.658;106.724;2023-12-04T00:29:18;7.93;;;5.20;;
34142;SDS011;20419;10.658;106.724;2023-12-04T00:31:45;6.63;;;4.88;;
34142;SDS011;20419;10.658;106.724;2023-12-04T00:34:12;6.80;;;4.82;;
34142;SDS011;20419;10.658;106.724;2023-12-04T00:36:39;8.95;;;4.97;;
34142;SDS011;20419;10.658;106.724;2023-12-04T00:39:05;8.25;;;4.85;;
34142;SDS011;20419;10.658;106.724;2023-12-04T00:41:34;8.82;;;4.72;;
34142;SDS011;20419;10.658;106.724;2023-12-04T00:46:27;9.15;;;4.80;;
34142;SDS011;20419;10.658;106.724;2023-12-04T00:48:55;8.30;;;5.45;;
34142;SDS011;20419;10.658;106.724;2023-12-04T00:51:22;8.82;;;4.97;;
34142;SDS011;20419;10.658;106.724;2023-12-04T00:53:49;8.05;;;5.22;;
34142;SDS011;20419;10.658;106.724;2023-12-04T00:56:16;7.80;;;5.07;;
34142;SDS011;20419;10.658;106.724;2023-12-04T00:58:44;7.20;;;4.88;;
34142;SDS011;20419;10.658;106.724;2023-12-04T01:01:11;7.93;;;4.95;;
34142;SDS011;20419;10.658;106.724;2023-12-04T01:03:38;8.43;;;5.10;;
34142;SDS011;20419;10.658;106.724;2023-12-04T01:06:05;8.38;;;5.53;;
34142;SDS011;20419;10.658;106.724;2023-12-04T01:08:32;7.85;;;5.35;;
34142;SDS011;20419;10.658;106.724;2023-12-04T01:10:59;7.85;;;5.32;;
34142;SDS011;20419;10.658;106.724;2023-12-04T01:13:26;7.82;;;5.25;;
34142;SDS011;20419;10.658;106.724;2023-12-04T01:15:52;9.30;;;5.45;;
34142;SDS011;20419;10.658;106.724;2023-12-04T01:18:19;9.07;;;5.68;;
34142;SDS011;20419;10.658;106.724;2023-12-04T01:20:46;8.00;;;5.57;;
34142;SDS011;20419;10.658;106.724;2023-12-04T01:23:13;8.48;;;5.45;;
34142;SDS011;20419;10.658;106.724;2023-12-04T01:25:39;8.65;;;6.10;;
34142;SDS011;20419;10.658;106.724;2023-12-04T01:28:06;8.32;;;5.40;;
34142;SDS011;20419;10.658;106.724;2023-12-04T01:30:35;8.20;;;5.03;;
34142;SDS011;20419;10.658;106.724;2023-12-04T01:35:28;9.40;;;5.57;;
34142;SDS011;20419;10.658;106.724;2023-12-04T01:37:55;7.55;;;5.50;;
34142;SDS011;20419;10.658;106.724;2023-12-04T01:40:22;8.18;;;4.90;;
34142;SDS011;20419;10.658;106.724;2023-12-04T01:42:48;9.15;;;5.05;;
34142;SDS011;20419;10.658;106.724;2023-12-04T01:45:15;9.10;;;5.28;;
34142;SDS011;20419;10.658;106.724;2023-12-04T01:47:42;7.50;;;4.95;;
34142;SDS011;20419;10.658;106.724;2023-12-04T01:50:09;8.02;;;5.32;;
34142;SDS011;20419;10.658;106.724;2023-12-04T01:52:36;7.00;;;5.10;;
34142;SDS011;20419;10.658;106.724;2023-12-04T01:55:03;7.28;;;4.95;;
34142;SDS011;20419;10.658;106.724;2023-12-04T01:57:31;8.40;;;5.50;;
34142;SDS011;20419;10.658;106.724;2023-12-04T01:59:58;8.30;;;5.22;;
34142;SDS011;20419;10.658;106.724;2023-12-04T02:02:25;8.13;;;5.05;;
34142;SDS011;20419;10.658;106.724;2023-12-04T02:04:53;7.10;;;4.50;;
34142;SDS011;20419;10.658;106.724;2023-12-04T02:09:47;8.50;;;5.57;;
34142;SDS011;20419;10.658;106.724;2023-12-04T02:12:13;7.63;;;4.93;;
34142;SDS011;20419;10.658;106.724;2023-12-04T02:14:40;6.60;;;4.82;;
34142;SDS011;20419;10.658;106.724;2023-12-04T02:17:07;7.47;;;5.00;;
34142;SDS011;20419;10.658;106.724;2023-12-04T02:19:35;7.30;;;4.93;;
34142;SDS011;20419;10.658;106.724;2023-12-04T02:22:02;6.78;;;4.70;;
34142;SDS011;20419;10.658;106.724;2023-12-04T02:24:29;8.57;;;5.43;;
34142;SDS011;20419;10.658;106.724;2023-12-04T02:26:59;7.68;;;5.15;;
34142;SDS011;20419;10.658;106.724;2023-12-04T02:29:32;6.78;;;4.82;;
34142;SDS011;20419;10.658;106.724;2023-12-04T02:31:59;6.20;;;4.60;;
34142;SDS011;20419;10.658;106.724;2023-12-04T02:34:28;6.90;;;4.72;;
34142;SDS011;20419;10.658;106.724;2023-12-04T02:36:56;9.18;;;5.68;;
34142;SDS011;20419;10.658;106.724;2023-12-04T02:39:24;7.33;;;5.20;;
34142;SDS011;20419;10.658;106.724;2023-12-04T02:41:51;6.72;;;4.78;;
34142;SDS011;20419;10.658;106.724;2023-12-04T02:44:18;6.55;;;4.40;;
34142;SDS011;20419;10.658;106.724;2023-12-04T02:46:44;7.28;;;4.88;;
34142;SDS011;20419;10.658;106.724;2023-12-04T02:49:11;7.97;;;4.80;;
34142;SDS011;20419;10.658;106.724;2023-12-04T02:51:40;8.15;;;4.88;;
34142;SDS011;20419;10.658;106.724;2023-12-04T02:54:07;6.78;;;4.95;;
34142;SDS011;20419;10.658;106.724;2023-12-04T02:56:34;7.35;;;4.93;;
34142;SDS011;20419;10.658;106.724;2023-12-04T02:59:01;6.75;;;4.95;;
34142;SDS011;20419;10.658;106.724;2023-12-04T03:01:27;7.60;;;4.35;;
34142;SDS011;20419;10.658;106.724;2023-12-04T03:03:54;7.88;;;5.43;;
34142;SDS011;20419;10.658;106.724;2023-12-04T03:06:21;6.50;;;4.43;;
34142;SDS011;20419;10.658;106.724;2023-12-04T03:08:48;5.95;;;4.25;;
34142;SDS011;20419;10.658;106.724;2023-12-04T03:11:15;6.88;;;4.78;;
34142;SDS011;20419;10.658;106.724;2023-12-04T03:13:42;7.25;;;5.13;;
34142;SDS011;20419;10.658;106.724;2023-12-04T03:16:15;7.22;;;4.65;;
34142;SDS011;20419;10.658;106.724;2023-12-04T03:18:42;5.45;;;4.05;;
34142;SDS011;20419;10.658;106.724;2023-12-04T03:21:09;6.90;;;4.47;;
34142;SDS011;20419;10.658;106.724;2023-12-04T03:23:36;6.75;;;4.85;;
34142;SDS011;20419;10.658;106.724;2023-12-04T03:26:03;6.38;;;4.28;;
34142;SDS011;20419;10.658;106.724;2023-12-04T03:28:30;6.97;;;4.82;;
34142;SDS011;20419;10.658;106.724;2023-12-04T03:30:57;6.47;;;4.45;;
34142;SDS011;20419;10.658;106.724;2023-12-04T03:33:23;7.45;;;4.22;;
34142;SDS011;20419;10.658;106.724;2023-12-04T03:35:50;5.32;;;4.25;;
34142;SDS011;20419;10.658;106.724;2023-12-04T03:38:17;7.90;;;4.70;;
34142;SDS011;20419;10.658;106.724;2023-12-04T03:40:44;6.78;;;4.80;;
34142;SDS011;20419;10.658;106.724;2023-12-04T03:43:10;6.68;;;4.90;;
34142;SDS011;20419;10.658;106.724;2023-12-04T03:45:37;8.10;;;4.72;;
34142;SDS011;20419;10.658;106.724;2023-12-04T03:48:04;6.10;;;4.38;;
34142;SDS011;20419;10.658;106.724;2023-12-04T03:50:31;7.30;;;4.57;;
34142;SDS011;20419;10.658;106.724;2023-12-04T03:52:57;7.05;;;4.53;;
34142;SDS011;20419;10.658;106.724;2023-12-04T03:55:24;7.07;;;4.57;;
34142;SDS011;20419;10.658;106.724;2023-12-04T03:57:52;7.22;;;4.47;;
34142;SDS011;20419;10.658;106.724;2023-12-04T04:00:19;6.47;;;4.72;;
34142;SDS011;20419;10.658;106.724;2023-12-04T04:02:45;7.38;;;5.18;;
34142;SDS011;20419;10.658;106.724;2023-12-04T04:05:12;6.40;;;4.65;;
34142;SDS011;20419;10.658;106.724;2023-12-04T04:07:39;7.63;;;5.15;;
34142;SDS011;20419;10.658;106.724;2023-12-04T04:10:06;6.30;;;5.05;;
34142;SDS011;20419;10.658;106.724;2023-12-04T04:12:33;7.03;;;4.88;;
34142;SDS011;20419;10.658;106.724;2023-12-04T04:15:00;7.22;;;4.88;;
34142;SDS011;20419;10.658;106.724;2023-12-04T04:17:27;7.50;;;4.95;;
34142;SDS011;20419;10.658;106.724;2023-12-04T04:19:54;7.97;;;5.90;;
34142;SDS011;20419;10.658;106.724;2023-12-04T04:22:21;6.68;;;4.82;;
34142;SDS011;20419;10.658;106.724;2023-12-04T04:24:48;6.28;;;4.65;;
34142;SDS011;20419;10.658;106.724;2023-12-04T04:27:15;7.85;;;5.07;;
34142;SDS011;20419;10.658;106.724;2023-12-04T04:29:42;6.80;;;4.72;;
34142;SDS011;20419;10.658;106.724;2023-12-04T04:32:09;7.50;;;5.13;;
34142;SDS011;20419;10.658;106.724;2023-12-04T04:34:35;6.95;;;4.97;;
34142;SDS011;20419;10.658;106.724;2023-12-04T04:37:02;7.28;;;4.88;;
34142;SDS011;20419;10.658;106.724;2023-12-04T04:39:29;8.70;;;5.03;;
34142;SDS011;20419;10.658;106.724;2023-12-04T04:41:56;7.50;;;5.25;;
34142;SDS011;20419;10.658;106.724;2023-12-04T04:44:22;7.55;;;5.35;;
34142;SDS011;20419;10.658;106.724;2023-12-04T04:46:49;7.15;;;4.60;;
34142;SDS011;20419;10.658;106.724;2023-12-04T04:49:16;8.50;;;5.07;;
34142;SDS011;20419;10.658;106.724;2023-12-04T04:51:43;6.72;;;5.03;;
34142;SDS011;20419;10.658;106.724;2023-12-04T04:54:09;7.70;;;5.15;;
34142;SDS011;20419;10.658;106.724;2023-12-04T04:56:36;8.05;;;5.03;;
34142;SDS011;20419;10.658;106.724;2023-12-04T04:59:03;6.45;;;4.10;;
34142;SDS011;20419;10.658;106.724;2023-12-04T05:01:30;7.32;;;5.28;;
34142;SDS011;20419;10.658;106.724;2023-12-04T05:03:56;6.97;;;4.43;;
34142;SDS011;20419;10.658;106.724;2023-12-04T05:06:23;8.02;;;5.05;;
34142;SDS011;20419;10.658;106.724;2023-12-04T05:08:50;7.38;;;4.50;;
34142;SDS011;20419;10.658;106.724;2023-12-04T05:11:17;7.53;;;4.88;;
34142;SDS011;20419;10.658;106.724;2023-12-04T05:13:44;8.07;;;5.00;;
34142;SDS011;20419;10.658;106.724;2023-12-04T05:16:11;6.45;;;4.43;;
34142;SDS011;20419;10.658;106.724;2023-12-04T05:18:38;6.95;;;4.78;;
34142;SDS011;20419;10.658;106.724;2023-12-04T05:21:11;7.18;;;4.80;;
34142;SDS011;20419;10.658;106.724;2023-12-04T05:23:38;6.30;;;4.13;;
34142;SDS011;20419;10.658;106.724;2023-12-04T05:26:05;5.72;;;4.30;;
34142;SDS011;20419;10.658;106.724;2023-12-04T05:28:32;7.22;;;4.57;;
34142;SDS011;20419;10.658;106.724;2023-12-04T05:30:59;6.97;;;4.65;;
34142;SDS011;20419;10.658;106.724;2023-12-04T05:33:26;6.68;;;4.57;;
34142;SDS011;20419;10.658;106.724;2023-12-04T05:35:54;6.25;;;4.15;;
34142;SDS011;20419;10.658;106.724;2023-12-04T05:38:20;8.95;;;4.63;;
34142;SDS011;20419;10.658;106.724;2023-12-04T05:40:47;6.35;;;4.40;;
34142;SDS011;20419;10.658;106.724;2023-12-04T05:43:14;7.15;;;4.72;;
34142;SDS011;20419;10.658;106.724;2023-12-04T05:45:41;6.35;;;4.40;;
34142;SDS011;20419;10.658;106.724;2023-12-04T05:48:08;7.05;;;4.75;;
34142;SDS011;20419;10.658;106.724;2023-12-04T05:50:35;6.93;;;4.68;;
34142;SDS011;20419;10.658;106.724;2023-12-04T05:53:01;6.80;;;4.47;;
34142;SDS011;20419;10.658;106.724;2023-12-04T05:55:28;6.95;;;4.03;;
34142;SDS011;20419;10.658;106.724;2023-12-04T05:57:55;14.52;;;4.38;;
34142;SDS011;20419;10.658;106.724;2023-12-04T06:00:22;10.40;;;4.28;;
34142;SDS011;20419;10.658;106.724;2023-12-04T06:02:49;8.15;;;4.00;;
34142;SDS011;20419;10.658;106.724;2023-12-04T06:05:15;9.95;;;4.90;;
34142;SDS011;20419;10.658;106.724;2023-12-04T06:07:42;7.82;;;5.25;;
34142;SDS011;20419;10.658;106.724;2023-12-04T06:10:09;7.25;;;4.13;;
34142;SDS011;20419;10.658;106.724;2023-12-04T06:12:36;7.50;;;4.05;;
34142;SDS011;20419;10.658;106.724;2023-12-04T06:15:03;6.43;;;4.82;;
34142;SDS011;20419;10.658;106.724;2023-12-04T06:17:30;9.73;;;4.10;;
34142;SDS011;20419;10.658;106.724;2023-12-04T06:19:56;6.07;;;4.63;;
34142;SDS011;20419;10.658;106.724;2023-12-04T06:22:23;7.10;;;4.00;;
34142;SDS011;20419;10.658;106.724;2023-12-04T06:24:50;6.43;;;4.32;;
34142;SDS011;20419;10.658;106.724;2023-12-04T06:27:18;7.03;;;4.30;;
34142;SDS011;20419;10.658;106.724;2023-12-04T06:29:48;5.38;;;3.95;;
34142;SDS011;20419;10.658;106.724;2023-12-04T06:32:16;7.55;;;4.28;;
34142;SDS011;20419;10.658;106.724;2023-12-04T06:34:43;6.00;;;4.10;;
34142;SDS011;20419;10.658;106.724;2023-12-04T06:37:10;6.28;;;4.30;;
34142;SDS011;20419;10.658;106.724;2023-12-04T06:39:38;7.47;;;4.43;;
34142;SDS011;20419;10.658;106.724;2023-12-04T06:42:05;6.38;;;4.38;;
34142;SDS011;20419;10.658;106.724;2023-12-04T06:44:32;7.00;;;4.35;;
34142;SDS011;20419;10.658;106.724;2023-12-04T06:47:02;6.95;;;4.53;;
34142;SDS011;20419;10.658;106.724;2023-12-04T06:49:32;6.65;;;4.63;;
34142;SDS011;20419;10.658;106.724;2023-12-04T06:51:59;6.45;;;4.82;;
34142;SDS011;20419;10.658;106.724;2023-12-04T06:54:26;7.05;;;4.50;;
34142;SDS011;20419;10.658;106.724;2023-12-04T06:56:53;6.50;;;4.10;;
34142;SDS011;20419;10.658;106.724;2023-12-04T06:59:20;6.07;;;4.40;;
34142;SDS011;20419;10.658;106.724;2023-12-04T07:01:47;6.15;;;4.55;;
34142;SDS011;20419;10.658;106.724;2023-12-04T07:04:15;5.95;;;4.50;;
34142;SDS011;20419;10.658;106.724;2023-12-04T07:06:46;6.95;;;4.28;;
34142;SDS011;20419;10.658;106.724;2023-12-04T07:09:14;6.00;;;4.55;;
34142;SDS011;20419;10.658;106.724;2023-12-04T07:11:42;5.05;;;3.75;;
34142;SDS011;20419;10.658;106.724;2023-12-04T07:14:09;6.07;;;4.28;;
34142;SDS011;20419;10.658;106.724;2023-12-04T07:16:42;5.72;;;4.00;;
34142;SDS011;20419;10.658;106.724;2023-12-04T07:19:09;5.93;;;4.18;;
34142;SDS011;20419;10.658;106.724;2023-12-04T07:21:36;6.45;;;4.63;;
34142;SDS011;20419;10.658;106.724;2023-12-04T07:24:04;6.15;;;4.55;;
34142;SDS011;20419;10.658;106.724;2023-12-04T07:26:31;6.80;;;4.07;;
34142;SDS011;20419;10.658;106.724;2023-12-04T07:28:58;7.00;;;4.03;;
34142;SDS011;20419;10.658;106.724;2023-12-04T07:31:25;6.45;;;4.07;;
34142;SDS011;20419;10.658;106.724;2023-12-04T07:33:55;5.75;;;4.13;;
34142;SDS011;20419;10.658;106.724;2023-12-04T07:36:22;7.38;;;3.95;;
34142;SDS011;20419;10.658;106.724;2023-12-04T07:38:52;6.93;;;3.97;;
34142;SDS011;20419;10.658;106.724;2023-12-04T07:41:19;6.40;;;4.05;;
34142;SDS011;20419;10.658;106.724;2023-12-04T07:43:47;6.33;;;3.37;;
34142;SDS011;20419;10.658;106.724;2023-12-04T07:46:14;5.85;;;4.45;;
34142;SDS011;20419;10.658;106.724;2023-12-04T07:48:41;6.72;;;4.18;;
34142;SDS011;20419;10.658;106.724;2023-12-04T07:51:09;7.17;;;4.50;;
34142;SDS011;20419;10.658;106.724;2023-12-04T07:53:36;5.88;;;3.92;;
34142;SDS011;20419;10.658;106.724;2023-12-04T07:56:03;6.53;;;3.97;;
34142;SDS011;20419;10.658;106.724;2023-12-04T07:58:30;13.70;;;6.10;;
34142;SDS011;20419;10.658;106.724;2023-12-04T08:00:57;25.42;;;10.05;;
34142;SDS011;20419;10.658;106.724;2023-12-04T08:03:24;20.75;;;8.95;;
34142;SDS011;20419;10.658;106.724;2023-12-04T08:05:51;15.18;;;8.38;;
34142;SDS011;20419;10.658;106.724;2023-12-04T08:08:18;16.15;;;8.50;;
34142;SDS011;20419;10.658;106.724;2023-12-04T08:10:46;19.38;;;8.60;;
34142;SDS011;20419;10.658;106.724;2023-12-04T08:13:13;12.88;;;8.18;;
34142;SDS011;20419;10.658;106.724;2023-12-04T08:15:41;17.95;;;9.40;;
34142;SDS011;20419;10.658;106.724;2023-12-04T08:18:08;16.63;;;8.57;;
34142;SDS011;20419;10.658;106.724;2023-12-04T08:20:35;18.50;;;9.25;;
34142;SDS011;20419;10.658;106.724;2023-12-04T08:23:02;17.15;;;8.43;;
34142;SDS011;20419;10.658;106.724;2023-12-04T08:25:28;15.30;;;8.10;;
34142;SDS011;20419;10.658;106.724;2023-12-04T08:27:55;14.23;;;7.90;;
34142;SDS011;20419;10.658;106.724;2023-12-04T08:30:23;12.93;;;7.63;;
34142;SDS011;20419;10.658;106.724;2023-12-04T08:32:49;12.85;;;8.25;;
34142;SDS011;20419;10.658;106.724;2023-12-04T08:35:16;16.35;;;8.15;;
34142;SDS011;20419;10.658;106.724;2023-12-04T08:37:43;15.48;;;8.18;;
34142;SDS011;20419;10.658;106.724;2023-12-04T08:40:10;14.98;;;8.52;;
34142;SDS011;20419;10.658;106.724;2023-12-04T08:42:37;12.02;;;7.45;;
34142;SDS011;20419;10.658;106.724;2023-12-04T08:45:04;11.57;;;7.65;;
34142;SDS011;20419;10.658;106.724;2023-12-04T08:47:31;13.40;;;7.82;;
34142;SDS011;20419;10.658;106.724;2023-12-04T08:49:59;13.15;;;7.88;;
34142;SDS011;20419;10.658;106.724;2023-12-04T08:52:27;13.75;;;8.25;;
34142;SDS011;20419;10.658;106.724;2023-12-04T08:54:53;13.27;;;8.52;;
34142;SDS011;20419;10.658;106.724;2023-12-04T08:57:20;12.63;;;7.43;;
34142;SDS011;20419;10.658;106.724;2023-12-04T08:59:47;12.48;;;7.72;;
34142;SDS011;20419;10.658;106.724;2023-12-04T09:02:14;11.57;;;7.65;;
34142;SDS011;20419;10.658;106.724;2023-12-04T09:04:41;11.93;;;8.27;;
34142;SDS011;20419;10.658;106.724;2023-12-04T09:07:08;11.70;;;7.72;;
34142;SDS011;20419;10.658;106.724;2023-12-04T09:09:35;10.43;;;7.60;;
34142;SDS011;20419;10.658;106.724;2023-12-04T09:12:02;12.77;;;8.00;;
34142;SDS011;20419;10.658;106.724;2023-12-04T09:14:29;11.30;;;7.95;;
34142;SDS011;20419;10.658;106.724;2023-12-04T09:16:56;11.43;;;7.72;;
34142;SDS011;20419;10.658;106.724;2023-12-04T09:19:24;11.65;;;7.10;;
34142;SDS011;20419;10.658;106.724;2023-12-04T09:24:17;11.38;;;7.65;;
34142;SDS011;20419;10.658;106.724;2023-12-04T09:26:44;9.98;;;7.05;;
34142;SDS011;20419;10.658;106.724;2023-12-04T09:29:11;12.40;;;7.88;;
34142;SDS011;20419;10.658;106.724;2023-12-04T09:31:38;12.32;;;8.07;;
34142;SDS011;20419;10.658;106.724;2023-12-04T09:34:05;11.27;;;7.07;;
34142;SDS011;20419;10.658;106.724;2023-12-04T09:36:33;11.15;;;7.40;;
34142;SDS011;20419;10.658;106.724;2023-12-04T09:39:00;10.13;;;7.03;;
34142;SDS011;20419;10.658;106.724;2023-12-04T09:41:29;11.20;;;6.97;;
34142;SDS011;20419;10.658;106.724;2023-12-04T09:43:57;11.35;;;7.25;;
34142;SDS011;20419;10.658;106.724;2023-12-04T09:46:23;10.07;;;7.15;;
34142;SDS011;20419;10.658;106.724;2023-12-04T09:48:50;10.80;;;7.00;;
34142;SDS011;20419;10.658;106.724;2023-12-04T09:51:17;9.80;;;7.18;;
34142;SDS011;20419;10.658;106.724;2023-12-04T09:53:46;9.70;;;6.63;;
34142;SDS011;20419;10.658;106.724;2023-12-04T09:58:40;10.80;;;6.97;;
34142;SDS011;20419;10.658;106.724;2023-12-04T10:01:07;9.40;;;7.20;;
34142;SDS011;20419;10.658;106.724;2023-12-04T10:03:35;8.38;;;6.25;;
34142;SDS011;20419;10.658;106.724;2023-12-04T10:06:02;9.85;;;6.60;;
34142;SDS011;20419;10.658;106.724;2023-12-04T10:08:29;9.20;;;6.57;;
34142;SDS011;20419;10.658;106.724;2023-12-04T10:10:56;8.65;;;6.45;;
34142;SDS011;20419;10.658;106.724;2023-12-04T10:13:24;9.37;;;6.50;;
34142;SDS011;20419;10.658;106.724;2023-12-04T10:15:51;9.55;;;6.43;;
34142;SDS011;20419;10.658;106.724;2023-12-04T10:18:27;11.50;;;6.50;;
34142;SDS011;20419;10.658;106.724;2023-12-04T10:20:58;8.43;;;6.68;;
34142;SDS011;20419;10.658;106.724;2023-12-04T10:26:05;10.25;;;6.50;;
34142;SDS011;20419;10.658;106.724;2023-12-04T10:28:33;10.07;;;6.60;;
34142;SDS011;20419;10.658;106.724;2023-12-04T10:31:00;9.68;;;6.63;;
34142;SDS011;20419;10.658;106.724;2023-12-04T10:33:28;8.98;;;6.20;;
34142;SDS011;20419;10.658;106.724;2023-12-04T10:35:56;10.52;;;6.50;;
34142;SDS011;20419;10.658;106.724;2023-12-04T10:38:23;9.00;;;6.30;;
34142;SDS011;20419;10.658;106.724;2023-12-04T10:40:52;9.65;;;6.07;;
34142;SDS011;20419;10.658;106.724;2023-12-04T10:43:19;8.25;;;6.32;;
34142;SDS011;20419;10.658;106.724;2023-12-04T10:45:47;9.73;;;6.20;;
34142;SDS011;20419;10.658;106.724;2023-12-04T10:48:15;9.02;;;6.13;;
34142;SDS011;20419;10.658;106.724;2023-12-04T10:50:45;9.10;;;6.05;;
34142;SDS011;20419;10.658;106.724;2023-12-04T10:53:13;10.18;;;6.30;;
34142;SDS011;20419;10.658;106.724;2023-12-04T10:55:41;9.73;;;5.82;;
34142;SDS011;20419;10.658;106.724;2023-12-04T10:58:14;10.73;;;5.93;;
34142;SDS011;20419;10.658;106.724;2023-12-04T11:00:48;9.27;;;6.15;;
34142;SDS011;20419;10.658;106.724;2023-12-04T11:03:31;8.40;;;5.57;;
34142;SDS011;20419;10.658;106.724;2023-12-04T11:06:01;8.13;;;5.55;;
34142;SDS011;20419;10.658;106.724;2023-12-04T11:08:32;8.70;;;5.43;;
34142;SDS011;20419;10.658;106.724;2023-12-04T11:11:03;8.40;;;5.93;;
34142;SDS011;20419;10.658;106.724;2023-12-04T11:13:32;9.80;;;5.95;;
34142;SDS011;20419;10.658;106.724;2023-12-04T11:16:01;10.38;;;6.20;;
34142;SDS011;20419;10.658;106.724;2023-12-04T11:18:30;8.98;;;5.65;;
34142;SDS011;20419;10.658;106.724;2023-12-04T11:23:25;7.60;;;5.45;;
34142;SDS011;20419;10.658;106.724;2023-12-04T11:25:51;8.10;;;5.78;;
34142;SDS011;20419;10.658;106.724;2023-12-04T11:28:19;8.23;;;5.97;;
34142;SDS011;20419;10.658;106.724;2023-12-04T11:30:47;7.47;;;5.55;;
34142;SDS011;20419;10.658;106.724;2023-12-04T11:33:15;7.75;;;5.55;;
34142;SDS011;20419;10.658;106.724;2023-12-04T11:35:42;9.25;;;6.03;;
34142;SDS011;20419;10.658;106.724;2023-12-04T11:38:09;7.35;;;5.43;;
34142;SDS011;20419;10.658;106.724;2023-12-04T11:40:40;9.10;;;5.30;;
34142;SDS011;20419;10.658;106.724;2023-12-04T11:46:07;6.97;;;4.90;;
34142;SDS011;20419;10.658;106.724;2023-12-04T11:48:40;8.18;;;5.78;;
34142;SDS011;20419;10.658;106.724;2023-12-04T11:51:08;7.30;;;5.47;;
34142;SDS011;20419;10.658;106.724;2023-12-04T11:53:38;9.75;;;6.38;;
34142;SDS011;20419;10.658;106.724;2023-12-04T11:56:09;9.10;;;5.82;;
34142;SDS011;20419;10.658;106.724;2023-12-04T11:58:43;7.57;;;5.50;;
34142;SDS011;20419;10.658;106.724;2023-12-04T12:01:11;6.45;;;4.68;;
34142;SDS011;20419;10.658;106.724;2023-12-04T12:03:38;8.10;;;5.60;;
34142;SDS011;20419;10.658;106.724;2023-12-04T12:06:05;7.88;;;5.03;;
34142;SDS011;20419;10.658;106.724;2023-12-04T12:08:32;7.50;;;5.50;;
34142;SDS011;20419;10.658;106.724;2023-12-04T12:10:59;8.88;;;5.70;;
34142;SDS011;20419;10.658;106.724;2023-12-04T12:13:26;7.35;;;5.30;;
34142;SDS011;20419;10.658;106.724;2023-12-04T12:15:52;8.45;;;4.88;;
34142;SDS011;20419;10.658;106.724;2023-12-04T12:18:21;6.78;;;4.90;;
34142;SDS011;20419;10.658;106.724;2023-12-04T12:20:49;8.25;;;5.30;;
34142;SDS011;20419;10.658;106.724;2023-12-04T12:23:16;8.43;;;5.28;;
34142;SDS011;20419;10.658;106.724;2023-12-04T12:25:43;7.50;;;4.90;;
34142;SDS011;20419;10.658;106.724;2023-12-04T12:28:10;5.97;;;4.53;;
34142;SDS011;20419;10.658;106.724;2023-12-04T12:30:37;7.05;;;5.20;;
34142;SDS011;20419;10.658;106.724;2023-12-04T12:33:04;7.88;;;5.05;;
34142;SDS011;20419;10.658;106.724;2023-12-04T12:35:31;6.68;;;4.95;;
34142;SDS011;20419;10.658;106.724;2023-12-04T12:37:57;7.90;;;4.93;;
34142;SDS011;20419;10.658;106.724;2023-12-04T12:40:27;6.95;;;5.20;;
34142;SDS011;20419;10.658;106.724;2023-12-04T12:43:08;7.82;;;4.85;;
34142;SDS011;20419;10.658;106.724;2023-12-04T12:45:41;7.00;;;5.15;;
34142;SDS011;20419;10.658;106.724;2023-12-04T12:48:14;7.43;;;5.32;;
34142;SDS011;20419;10.658;106.724;2023-12-04T12:50:41;7.30;;;4.45;;
34142;SDS011;20419;10.658;106.724;2023-12-04T12:53:11;6.82;;;4.97;;
34142;SDS011;20419;10.658;106.724;2023-12-04T12:55:40;6.90;;;4.55;;
34142;SDS011;20419;10.658;106.724;2023-12-04T12:58:09;7.28;;;4.85;;
34142;SDS011;20419;10.658;106.724;2023-12-04T13:00:39;7.00;;;4.70;;
34142;SDS011;20419;10.658;106.724;2023-12-04T13:03:15;7.20;;;4.68;;
34142;SDS011;20419;10.658;106.724;2023-12-04T13:05:43;8.13;;;5.00;;
34142;SDS011;20419;10.658;106.724;2023-12-04T13:08:10;6.70;;;5.20;;
34142;SDS011;20419;10.658;106.724;2023-12-04T13:10:37;6.97;;;4.88;;
34142;SDS011;20419;10.658;106.724;2023-12-04T13:13:04;7.97;;;4.85;;
34142;SDS011;20419;10.658;106.724;2023-12-04T13:15:35;6.32;;;4.28;;
34142;SDS011;20419;10.658;106.724;2023-12-04T13:18:02;7.55;;;4.60;;
34142;SDS011;20419;10.658;106.724;2023-12-04T13:20:29;6.90;;;4.55;;
34142;SDS011;20419;10.658;106.724;2023-12-04T13:22:56;8.13;;;4.65;;
34142;SDS011;20419;10.658;106.724;2023-12-04T13:25:22;6.80;;;5.10;;
34142;SDS011;20419;10.658;106.724;2023-12-04T13:27:49;7.20;;;5.05;;
34142;SDS011;20419;10.658;106.724;2023-12-04T13:30:16;7.03;;;4.55;;
34142;SDS011;20419;10.658;106.724;2023-12-04T13:32:42;7.28;;;5.05;;
34142;SDS011;20419;10.658;106.724;2023-12-04T13:35:09;7.15;;;4.45;;
34142;SDS011;20419;10.658;106.724;2023-12-04T13:37:37;6.45;;;4.22;;
34142;SDS011;20419;10.658;106.724;2023-12-04T13:40:07;7.05;;;4.75;;
34142;SDS011;20419;10.658;106.724;2023-12-04T13:42:38;6.72;;;4.70;;
34142;SDS011;20419;10.658;106.724;2023-12-04T13:45:40;6.43;;;4.07;;
34142;SDS011;20419;10.658;106.724;2023-12-04T13:48:07;7.38;;;4.38;;
34142;SDS011;20419;10.658;106.724;2023-12-04T13:50:34;8.40;;;4.70;;
34142;SDS011;20419;10.658;106.724;2023-12-04T13:53:00;7.18;;;4.40;;
34142;SDS011;20419;10.658;106.724;2023-12-04T13:55:30;6.97;;;4.63;;
34142;SDS011;20419;10.658;106.724;2023-12-04T13:58:17;8.80;;;4.68;;
34142;SDS011;20419;10.658;106.724;2023-12-04T14:01:03;6.00;;;4.38;;
34142;SDS011;20419;10.658;106.724;2023-12-04T14:03:39;7.32;;;4.47;;
34142;SDS011;20419;10.658;106.724;2023-12-04T14:06:06;8.57;;;5.13;;
34142;SDS011;20419;10.658;106.724;2023-12-04T14:08:33;7.10;;;5.13;;
34142;SDS011;20419;10.658;106.724;2023-12-04T14:11:03;6.60;;;4.40;;
34142;SDS011;20419;10.658;106.724;2023-12-04T14:13:34;7.90;;;4.80;;
34142;SDS011;20419;10.658;106.724;2023-12-04T14:16:01;7.80;;;4.72;;
34142;SDS011;20419;10.658;106.724;2023-12-04T14:18:28;6.35;;;3.85;;
34142;SDS011;20419;10.658;106.724;2023-12-04T14:20:58;7.13;;;4.07;;
34142;SDS011;20419;10.658;106.724;2023-12-04T14:23:24;6.70;;;4.18;;
34142;SDS011;20419;10.658;106.724;2023-12-04T14:25:51;5.75;;;3.75;;
34142;SDS011;20419;10.658;106.724;2023-12-04T14:28:18;6.30;;;4.30;;
34142;SDS011;20419;10.658;106.724;2023-12-04T14:30:45;6.60;;;4.60;;
34142;SDS011;20419;10.658;106.724;2023-12-04T14:33:12;6.22;;;3.85;;
34142;SDS011;20419;10.658;106.724;2023-12-04T14:35:39;6.93;;;4.28;;
34142;SDS011;20419;10.658;106.724;2023-12-04T14:38:06;6.28;;;4.35;;
34142;SDS011;20419;10.658;106.724;2023-12-04T14:40:32;6.20;;;3.95;;
34142;SDS011;20419;10.658;106.724;2023-12-04T14:43:19;7.47;;;4.43;;